Time;durP1;ratioP1;P1;durP2;ratioP2;P2;SDS_P1;SDS_P2;PMS_P1;PMS_P2;Temp;Humidity;BMP_temperature;BMP_pressure;BME280_temperature;BME280_humidity;BME280_pressure;Samples;Min_cycle;Max_cycle;Signal;HPM_P1;HPM_P2
2023/12/18 06:51:10;;;;;;;;;;;;;;;;;;;;;
2023/12/18 07:02:04;;;;;;;28.45;2.60;;;;;;;;;;4817291;24;20074;-83
2023/12/18 07:13:26;;;;;;;10.15;2.75;;;;;;;;;;4866199;24;20058;-82
2023/12/18 07:15:55;;;;;;;15.82;2.40;;;;;;;;;;4813114;29;20769;-83
2023/12/18 07:18:39;;;;;;;6.97;2.85;;;;;;;;;;4823959;29;20046;-84
2023/12/18 07:21:08;;;;;;;41.88;4.93;;;;;;;;;;4819575;29;20038;-83
2023/12/18 07:23:42;;;;;;;11.13;3.20;;;;;;;;;;4807075;29;20038;-83
2023/12/18 07:26:26;;;;;;;13.50;3.90;;;;;;;;;;4827163;29;20413;-85
2023/12/18 07:29:00;;;;;;;2.45;1.20;;;;;;;;;;4821638;29;20076;-84
2023/12/18 07:31:26;;;;;;;7.75;3.28;;;;;;;;;;4804148;29;20406;-84
2023/12/18 07:33:52;;;;;;;13.20;3.35;;;;;;;;;;4824450;29;20046;-85
2023/12/18 07:36:24;;;;;;;4.40;1.58;;;;;;;;;;4803349;29;20118;-85
2023/12/18 10:38:10;;;;;;;8.02;4.20;;;;;;;;;;4730653;30;20174;-80
2023/12/18 10:40:36;;;;;;;20.77;5.22;;;;;;;;;;4790128;30;20050;-79
2023/12/18 10:43:08;;;;;;;8.70;3.72;;;;;;;;;;4795035;29;20461;-80
2023/12/18 10:45:35;;;;;;;6.72;3.30;;;;;;;;;;4786835;29;20081;-79
2023/12/18 10:48:01;;;;;;;6.20;4.75;;;;;;;;;;4791957;29;20524;-79
2023/12/18 10:50:32;;;;;;;12.65;4.68;;;;;;;;;;4788796;30;20059;-80
2023/12/18 10:53:00;;;;;;;13.98;4.95;;;;;;;;;;4786723;30;20051;-80
2023/12/18 10:55:26;;;;;;;11.77;4.93;;;;;;;;;;4793424;29;20129;-80
2023/12/18 10:57:53;;;;;;;8.15;3.67;;;;;;;;;;4792962;29;20047;-80
2023/12/18 11:00:19;;;;;;;8.10;3.85;;;;;;;;;;4790087;29;20055;-80
2023/12/18 11:02:46;;;;;;;17.73;5.30;;;;;;;;;;4789416;29;20146;-81
2023/12/18 11:05:13;;;;;;;6.68;4.00;;;;;;;;;;4787408;29;20043;-80
2023/12/18 11:07:40;;;;;;;13.40;5.20;;;;;;;;;;4796371;29;20549;-80
2023/12/18 11:10:07;;;;;;;34.70;5.30;;;;;;;;;;4792896;29;20134;-80
2023/12/18 11:12:34;;;;;;;25.63;4.10;;;;;;;;;;4787952;30;20086;-80
2023/12/18 11:15:13;;;;;;;8.38;5.45;;;;;;;;;;4790177;29;20044;-80
2023/12/18 11:17:45;;;;;;;6.50;4.38;;;;;;;;;;4793936;29;20132;-80
2023/12/18 11:20:21;;;;;;;11.52;4.05;;;;;;;;;;4784703;29;20093;-80
2023/12/18 11:22:48;;;;;;;10.75;4.75;;;;;;;;;;4788864;29;20128;-81
2023/12/18 11:25:14;;;;;;;8.95;4.50;;;;;;;;;;4790688;29;20051;-80
2023/12/18 11:27:43;;;;;;;6.25;2.85;;;;;;;;;;4795357;29;20047;-83
2023/12/18 11:30:22;;;;;;;7.90;5.72;;;;;;;;;;4774371;30;20048;-83
2023/12/18 11:32:48;;;;;;;8.02;3.55;;;;;;;;;;4786545;30;20036;-83
2023/12/18 11:35:15;;;;;;;7.45;3.97;;;;;;;;;;4789627;29;20054;-83
2023/12/18 11:37:49;;;;;;;11.63;5.55;;;;;;;;;;4774284;30;20047;-82
2023/12/18 11:40:35;;;;;;;7.07;3.80;;;;;;;;;;4786784;30;20051;-79
2023/12/18 11:43:01;;;;;;;16.85;3.90;;;;;;;;;;4787490;30;20066;-81
2023/12/18 11:45:27;;;;;;;15.10;5.35;;;;;;;;;;4789302;29;20039;-79
2023/12/18 11:47:55;;;;;;;7.93;5.38;;;;;;;;;;4789712;30;20043;-79
2023/12/18 11:50:25;;;;;;;13.73;5.63;;;;;;;;;;4800910;29;20057;-79
2023/12/18 11:52:53;;;;;;;10.70;4.53;;;;;;;;;;4791232;29;20253;-81
2023/12/18 11:55:38;;;;;;;7.25;4.43;;;;;;;;;;4790738;29;20400;-79
2023/12/18 11:58:04;;;;;;;11.90;4.50;;;;;;;;;;4789676;29;20071;-82
2023/12/18 12:00:39;;;;;;;24.77;5.82;;;;;;;;;;4798025;29;20043;-82
2023/12/18 12:03:06;;;;;;;9.52;5.10;;;;;;;;;;4792602;29;20043;-81
2023/12/18 12:05:33;;;;;;;16.40;5.38;;;;;;;;;;4786958;30;20043;-81
2023/12/18 12:08:02;;;;;;;16.30;7.28;;;;;;;;;;4791477;29;20418;-82
2023/12/18 12:10:31;;;;;;;17.90;5.68;;;;;;;;;;4787731;30;20062;-82
2023/12/18 12:12:58;;;;;;;8.13;4.70;;;;;;;;;;4783780;29;20050;-82
2023/12/18 12:15:28;;;;;;;8.05;4.32;;;;;;;;;;4773564;30;20057;-82
2023/12/18 12:18:03;;;;;;;16.33;4.90;;;;;;;;;;4793488;29;20035;-81
2023/12/18 12:20:29;;;;;;;8.98;4.25;;;;;;;;;;4778675;29;20053;-80
2023/12/18 12:22:55;;;;;;;8.35;4.65;;;;;;;;;;4790040;29;20051;-81
2023/12/18 12:47:47;;;;;;;19.95;3.85;;;;;;;;;;5671098;24;20089;31
2023/12/18 12:50:26;;;;;;;;;;;;;;;;;;;;;
2023/12/18 12:52:57;;;;;;;10.80;3.53;;;;;;;;;;4801630;29;20046;-79
2023/12/18 12:55:23;;;;;;;4.95;3.58;;;;;;;;;;4777365;29;20092;-79
2023/12/18 12:57:52;;;;;;;9.10;3.97;;;;;;;;;;4794639;29;20042;-79
2023/12/18 13:00:22;;;;;;;10.52;3.60;;;;;;;;;;4775953;29;20061;-80
2023/12/18 13:08:37;;;;;;;14.45;2.80;;;;;;;;;;4769109;30;20150;-79
2023/12/18 13:11:08;;;;;;;7.45;3.72;;;;;;;;;;4752529;30;20048;-79
2023/12/18 13:13:37;;;;;;;8.10;3.70;;;;;;;;;;4786989;29;20090;-79
2023/12/18 13:16:04;;;;;;;11.13;4.00;;;;;;;;;;4795187;29;20088;-78
2023/12/18 13:18:51;;;;;;;9.00;3.97;;;;;;;;;;4771787;30;20849;-83
2023/12/18 13:24:04;;;;;;;8.85;4.40;;;;;;;;;;4785385;29;20520;-80
2023/12/18 13:26:30;;;;;;;16.80;5.90;;;;;;;;;;4793958;29;20058;-80
2023/12/18 13:28:56;;;;;;;5.65;3.40;;;;;;;;;;4791904;29;20047;-80
2023/12/18 13:31:22;;;;;;;12.10;5.50;;;;;;;;;;4799934;29;20035;-81
2023/12/18 13:33:48;;;;;;;10.45;3.63;;;;;;;;;;4793940;29;20039;-80
2023/12/18 13:36:14;;;;;;;9.02;4.38;;;;;;;;;;4773220;30;20050;-81
2023/12/18 13:38:40;;;;;;;10.68;7.05;;;;;;;;;;4772716;30;20055;-82
2023/12/18 13:41:06;;;;;;;14.88;6.40;;;;;;;;;;4796122;29;21060;-81
2023/12/18 13:43:32;;;;;;;13.80;7.50;;;;;;;;;;4770350;30;20130;-81
2023/12/18 13:45:58;;;;;;;28.42;7.32;;;;;;;;;;4785383;29;20031;-81
2023/12/18 13:48:24;;;;;;;13.10;3.78;;;;;;;;;;4786302;30;20059;-81
2023/12/18 13:50:50;;;;;;;10.55;5.63;;;;;;;;;;4771454;29;20097;-80
2023/12/18 13:53:16;;;;;;;40.67;17.00;;;;;;;;;;4793654;29;20417;-80
2023/12/18 13:55:42;;;;;;;31.08;12.85;;;;;;;;;;4786268;30;20035;-81
2023/12/18 13:58:08;;;;;;;30.52;11.25;;;;;;;;;;4779013;30;20483;-80
2023/12/18 14:00:34;;;;;;;35.03;12.95;;;;;;;;;;4788254;29;20100;-80
2023/12/18 14:03:03;;;;;;;52.63;17.73;;;;;;;;;;4797086;29;20048;-81
2023/12/18 14:05:29;;;;;;;53.25;22.95;;;;;;;;;;4796234;29;20043;-80
2023/12/18 14:07:55;;;;;;;60.28;18.58;;;;;;;;;;4786830;29;20062;-80
2023/12/18 14:10:22;;;;;;;32.42;8.65;;;;;;;;;;4794921;29;20047;-80
2023/12/18 14:12:48;;;;;;;13.70;5.40;;;;;;;;;;4773690;29;20078;-81
2023/12/18 14:15:14;;;;;;;14.35;6.30;;;;;;;;;;4790174;29;20470;-81
2023/12/18 14:17:40;;;;;;;10.15;5.25;;;;;;;;;;4769867;30;20082;-80
2023/12/18 14:20:06;;;;;;;11.93;5.65;;;;;;;;;;4782964;29;20055;-81
2023/12/18 14:22:32;;;;;;;6.68;3.05;;;;;;;;;;4767023;29;20051;-81
2023/12/18 14:25:00;;;;;;;12.75;4.75;;;;;;;;;;4777030;30;20068;-81
2023/12/18 14:27:26;;;;;;;13.05;4.10;;;;;;;;;;4768578;30;20055;-80
2023/12/18 14:29:52;;;;;;;14.70;5.93;;;;;;;;;;4798901;29;20100;-80
2023/12/18 14:32:19;;;;;;;11.88;5.90;;;;;;;;;;4786225;29;20052;-80
2023/12/18 14:34:45;;;;;;;8.23;3.42;;;;;;;;;;4790112;29;20050;-79
2023/12/18 14:37:16;;;;;;;9.23;4.28;;;;;;;;;;4790709;29;20043;-80
2023/12/18 14:39:42;;;;;;;32.30;6.22;;;;;;;;;;4787813;29;20039;-79
2023/12/18 14:42:08;;;;;;;28.83;7.10;;;;;;;;;;4790089;29;20503;-78
2023/12/18 14:44:34;;;;;;;41.53;4.22;;;;;;;;;;4792078;29;20593;-80
2023/12/18 14:47:03;;;;;;;6.68;3.15;;;;;;;;;;4789853;29;20491;-80
2023/12/18 14:49:29;;;;;;;6.07;3.97;;;;;;;;;;4774178;29;20138;-79
2023/12/18 14:51:56;;;;;;;8.40;5.10;;;;;;;;;;4797707;29;20051;-80
2023/12/18 14:54:22;;;;;;;8.68;5.75;;;;;;;;;;4775351;29;20039;-80
2023/12/18 14:56:52;;;;;;;6.82;4.47;;;;;;;;;;4791162;29;20505;-79
2023/12/18 14:59:22;;;;;;;7.30;3.92;;;;;;;;;;4789263;29;20036;-79
2023/12/18 15:01:48;;;;;;;8.13;3.40;;;;;;;;;;4789316;29;20148;-79
2023/12/18 15:04:14;;;;;;;12.63;3.88;;;;;;;;;;4796750;29;20046;-81
2023/12/18 15:06:40;;;;;;;5.53;3.22;;;;;;;;;;4792702;29;20059;-82
2023/12/18 15:09:09;;;;;;;17.50;5.68;;;;;;;;;;4755043;30;20124;-81
2023/12/18 15:11:41;;;;;;;11.00;5.53;;;;;;;;;;4753797;30;20143;-82
2023/12/18 15:14:15;;;;;;;8.82;4.65;;;;;;;;;;4738535;30;20036;-81
2023/12/18 15:16:44;;;;;;;7.40;3.40;;;;;;;;;;4747025;30;20078;-81
2023/12/18 15:19:12;;;;;;;19.67;7.65;;;;;;;;;;4751527;30;20176;-81
2023/12/18 15:21:39;;;;;;;3.70;2.95;;;;;;;;;;4755820;30;20047;-81
2023/12/18 15:24:05;;;;;;;9.70;4.65;;;;;;;;;;4757995;30;20052;-79
2023/12/18 15:26:33;;;;;;;9.18;4.72;;;;;;;;;;4750269;30;20048;-80
2023/12/18 15:28:59;;;;;;;16.98;4.93;;;;;;;;;;4742050;30;21086;-80
2023/12/18 15:31:25;;;;;;;12.48;4.95;;;;;;;;;;4748124;30;20048;-80
2023/12/18 15:33:51;;;;;;;6.93;4.18;;;;;;;;;;4733476;30;20048;-79
2023/12/18 15:36:17;;;;;;;6.38;4.47;;;;;;;;;;4754368;30;20562;-81
2023/12/18 15:38:43;;;;;;;7.00;4.55;;;;;;;;;;4760927;30;20052;-81
2023/12/18 15:41:09;;;;;;;24.70;6.13;;;;;;;;;;4786652;29;20047;-81
2023/12/18 15:43:35;;;;;;;61.95;8.05;;;;;;;;;;4791410;29;20055;-79
2023/12/18 15:46:02;;;;;;;26.88;6.22;;;;;;;;;;4789841;29;20043;-80
2023/12/18 15:48:28;;;;;;;17.02;5.55;;;;;;;;;;4788423;29;20055;-79
2023/12/18 15:50:54;;;;;;;11.85;3.90;;;;;;;;;;4788386;29;20294;-79
2023/12/18 15:53:21;;;;;;;8.95;6.13;;;;;;;;;;4771164;29;20047;-79
2023/12/18 15:55:47;;;;;;;44.97;4.32;;;;;;;;;;4791916;29;20039;-79
2023/12/18 15:58:13;;;;;;;21.98;5.78;;;;;;;;;;4797067;29;20047;-80
2023/12/18 16:00:39;;;;;;;16.58;3.25;;;;;;;;;;4780554;29;20392;-79
2023/12/18 16:03:05;;;;;;;12.60;3.92;;;;;;;;;;4800385;29;20050;-80
2023/12/18 16:05:34;;;;;;;9.32;2.95;;;;;;;;;;4790074;29;20050;-79
2023/12/18 16:08:00;;;;;;;7.00;3.83;;;;;;;;;;4789990;29;20488;-80
2023/12/18 16:10:26;;;;;;;12.15;5.75;;;;;;;;;;4788155;29;20495;-79
2023/12/18 16:12:52;;;;;;;7.32;3.90;;;;;;;;;;4786351;29;20070;-79
2023/12/18 16:15:20;;;;;;;7.88;4.65;;;;;;;;;;4792278;29;20097;-79
2023/12/18 16:17:47;;;;;;;15.35;4.78;;;;;;;;;;4786196;29;20047;-79
2023/12/18 16:20:13;;;;;;;12.15;4.90;;;;;;;;;;4786146;29;20043;-80
2023/12/18 16:22:39;;;;;;;12.77;3.42;;;;;;;;;;4792220;29;20054;-80
2023/12/18 16:25:05;;;;;;;15.15;4.28;;;;;;;;;;4791979;29;20055;-79
2023/12/18 16:27:31;;;;;;;14.48;5.85;;;;;;;;;;4775532;29;20668;-80
2023/12/18 16:29:57;;;;;;;8.60;5.15;;;;;;;;;;4799762;29;20059;-80
2023/12/18 16:32:23;;;;;;;31.98;6.00;;;;;;;;;;4788238;29;20052;-80
2023/12/18 16:34:49;;;;;;;28.33;5.22;;;;;;;;;;4795508;29;20400;-80
2023/12/18 16:37:17;;;;;;;13.25;4.40;;;;;;;;;;4784986;29;20047;-80
2023/12/18 16:39:43;;;;;;;11.57;6.10;;;;;;;;;;4770251;29;20502;-80
2023/12/18 16:42:13;;;;;;;12.20;3.53;;;;;;;;;;4790895;29;20071;-80
2023/12/18 16:44:39;;;;;;;7.10;3.85;;;;;;;;;;4785050;29;20058;-80
2023/12/18 16:47:05;;;;;;;7.22;4.22;;;;;;;;;;4788693;29;20050;-80
2023/12/18 16:49:32;;;;;;;16.63;5.88;;;;;;;;;;4802486;29;20055;-79
2023/12/18 16:51:58;;;;;;;13.45;4.30;;;;;;;;;;4792437;29;20466;-80
2023/12/18 16:54:24;;;;;;;17.95;6.70;;;;;;;;;;4776881;30;20122;-81
2023/12/18 16:56:51;;;;;;;9.20;5.05;;;;;;;;;;4770606;29;20122;-79
2023/12/18 16:59:17;;;;;;;33.08;5.50;;;;;;;;;;4791141;29;20047;-79
2023/12/18 17:01:46;;;;;;;16.40;6.18;;;;;;;;;;4795607;29;20051;-79
2023/12/18 17:04:12;;;;;;;6.63;4.05;;;;;;;;;;4787929;29;20051;-79
2023/12/18 17:06:38;;;;;;;20.70;5.93;;;;;;;;;;4794963;29;20058;-79
2023/12/18 17:09:04;;;;;;;14.55;5.10;;;;;;;;;;4784671;29;20558;-79
2023/12/18 17:11:30;;;;;;;6.22;4.22;;;;;;;;;;4790048;29;20047;-79
2023/12/18 17:13:56;;;;;;;27.80;6.10;;;;;;;;;;4772305;29;20055;-79
2023/12/18 17:16:22;;;;;;;9.13;3.45;;;;;;;;;;4786965;29;20043;-79
2023/12/18 17:18:49;;;;;;;8.65;3.15;;;;;;;;;;4782073;29;20043;-79
2023/12/18 17:21:15;;;;;;;11.02;4.88;;;;;;;;;;4786277;29;20036;-79
2023/12/18 17:23:41;;;;;;;22.17;5.53;;;;;;;;;;4773949;29;20138;-79
2023/12/18 17:26:07;;;;;;;8.15;6.07;;;;;;;;;;4787575;29;20071;-79
2023/12/18 17:28:33;;;;;;;21.88;6.18;;;;;;;;;;4795782;29;20057;-79
2023/12/18 17:30:59;;;;;;;25.45;5.05;;;;;;;;;;4809839;29;20046;-78
2023/12/18 17:33:25;;;;;;;12.32;5.18;;;;;;;;;;4803815;29;20049;-80
2023/12/18 17:35:52;;;;;;;21.02;6.40;;;;;;;;;;4812700;29;20512;-79
2023/12/18 17:38:23;;;;;;;10.02;4.47;;;;;;;;;;4803273;29;20043;-79
2023/12/18 17:40:53;;;;;;;11.85;6.97;;;;;;;;;;4800740;29;20047;-78
2023/12/18 17:43:21;;;;;;;17.15;7.65;;;;;;;;;;4786533;29;20038;-78
2023/12/18 17:45:49;;;;;;;18.83;9.93;;;;;;;;;;4809271;29;20039;-77
2023/12/18 17:48:15;;;;;;;13.63;6.75;;;;;;;;;;4795751;29;20512;-78
2023/12/18 17:50:44;;;;;;;9.90;4.88;;;;;;;;;;4786609;29;20051;-79
2023/12/18 17:53:10;;;;;;;11.93;6.60;;;;;;;;;;4809612;29;20112;-79
2023/12/18 17:55:36;;;;;;;18.20;7.63;;;;;;;;;;4793549;29;20047;-81
2023/12/18 18:01:05;;;;;;;;;;;;;;;;;;5780750;24;20168;-78
2023/12/18 18:17:38;;;;;;;15.13;6.28;;;;;;;;;;4592089;24;20069;-78
2023/12/18 18:20:12;;;;;;;12.48;4.65;;;;;;;;;;4833443;29;20552;-79
2023/12/18 18:22:38;;;;;;;20.17;7.72;;;;;;;;;;4819996;29;20534;-80
2023/12/18 18:25:05;;;;;;;12.15;4.22;;;;;;;;;;4841640;29;20041;-80
2023/12/18 18:28:04;;;;;;;29.77;6.95;;;;;;;;;;4822630;29;20038;-82
2023/12/18 18:30:30;;;;;;;20.05;6.57;;;;;;;;;;4834003;29;20815;-80
2023/12/18 18:33:02;;;;;;;7.78;4.18;;;;;;;;;;4848773;29;20042;-80
2023/12/18 18:35:50;;;;;;;13.93;7.07;;;;;;;;;;4825919;29;20060;-81
2023/12/18 18:39:01;;;;;;;;;;;;;;;;;;;;;
2023/12/18 18:41:45;;;;;;;17.92;5.45;;;;;;;;;;4841116;29;20052;-81
2023/12/18 18:44:18;;;;;;;16.08;6.43;;;;;;;;;;4825811;29;20077;-82
2023/12/18 18:46:48;;;;;;;23.42;7.70;;;;;;;;;;4831463;29;20061;-80
2023/12/18 18:49:14;;;;;;;23.48;5.90;;;;;;;;;;4842432;29;20484;-80
2023/12/18 19:00:07;;;;;;;11.85;5.72;;;;;;;;;;5098096;24;20078;-80
2023/12/18 19:02:56;;;;;;;14.98;5.97;;;;;;;;;;4793936;29;20038;-80
2023/12/18 19:08:14;;;;;;;10.85;6.00;;;;;;;;;;4833144;29;20054;-80
2023/12/18 19:10:46;;;;;;;8.95;4.80;;;;;;;;;;4811061;29;20118;-80
2023/12/18 19:13:24;;;;;;;70.70;9.30;;;;;;;;;;4824914;29;20039;-80
2023/12/18 19:15:50;;;;;;;8.48;5.45;;;;;;;;;;4814033;29;20383;-81
2023/12/18 19:18:16;;;;;;;11.02;5.25;;;;;;;;;;4824883;29;20038;-81
2023/12/18 19:20:42;;;;;;;13.48;5.75;;;;;;;;;;4808976;29;20057;-82
2023/12/18 19:23:08;;;;;;;10.60;5.60;;;;;;;;;;4825651;29;20064;-81
2023/12/18 19:25:35;;;;;;;13.90;7.22;;;;;;;;;;4815096;29;20476;-81
2023/12/18 19:28:01;;;;;;;13.05;6.45;;;;;;;;;;4823660;29;20047;-80
2023/12/18 19:30:27;;;;;;;13.45;7.30;;;;;;;;;;4808342;29;20446;-80
2023/12/18 19:32:53;;;;;;;11.07;5.97;;;;;;;;;;4808510;29;20050;-81
2023/12/18 19:35:19;;;;;;;8.60;5.32;;;;;;;;;;4809245;29;20047;-80
2023/12/18 19:37:45;;;;;;;20.70;5.82;;;;;;;;;;4812450;29;20791;-80
2023/12/18 19:40:14;;;;;;;12.50;6.07;;;;;;;;;;4827596;29;20050;-80
2023/12/18 19:42:42;;;;;;;15.77;6.28;;;;;;;;;;4808788;29;20043;-81
2023/12/18 19:45:09;;;;;;;22.23;7.25;;;;;;;;;;4824448;29;20477;-80
2023/12/18 19:47:35;;;;;;;16.50;7.30;;;;;;;;;;4820169;29;20125;-79
2023/12/18 19:50:01;;;;;;;18.65;7.05;;;;;;;;;;4805670;29;20062;-79
2023/12/18 19:52:27;;;;;;;13.73;6.05;;;;;;;;;;4823033;29;20038;-80
2023/12/18 19:54:53;;;;;;;17.17;5.85;;;;;;;;;;4807509;29;20094;-82
2023/12/18 19:57:22;;;;;;;10.60;6.03;;;;;;;;;;4829338;29;20030;-82
2023/12/18 19:59:48;;;;;;;7.63;4.03;;;;;;;;;;4808163;29;20066;-79
2023/12/18 20:02:14;;;;;;;10.90;5.07;;;;;;;;;;4842570;29;20705;-81
2023/12/18 20:04:40;;;;;;;11.45;6.50;;;;;;;;;;4816823;29;20125;-81
2023/12/18 20:07:06;;;;;;;17.88;8.50;;;;;;;;;;4816632;29;20050;-81
2023/12/18 20:09:32;;;;;;;8.00;5.57;;;;;;;;;;4822961;29;20050;-81
2023/12/18 20:11:58;;;;;;;38.50;9.57;;;;;;;;;;4825321;29;20556;-81
2023/12/18 20:14:24;;;;;;;33.55;10.07;;;;;;;;;;4830483;29;20129;-81
2023/12/18 20:16:50;;;;;;;10.25;6.50;;;;;;;;;;4812981;29;20137;-81
2023/12/18 20:19:16;;;;;;;8.35;4.93;;;;;;;;;;4820418;29;20043;-81
2023/12/18 20:21:42;;;;;;;27.75;5.32;;;;;;;;;;4808567;29;20454;-81
2023/12/18 20:24:08;;;;;;;14.02;5.05;;;;;;;;;;4824387;29;20089;-81
2023/12/18 20:26:34;;;;;;;25.10;6.07;;;;;;;;;;4824674;29;20061;-81
2023/12/18 20:29:01;;;;;;;11.63;5.93;;;;;;;;;;4807109;29;20409;-81
2023/12/18 20:31:27;;;;;;;35.03;7.75;;;;;;;;;;4811227;29;20054;-81
2023/12/18 20:33:53;;;;;;;13.52;6.40;;;;;;;;;;4820505;29;20066;-81
2023/12/18 20:36:19;;;;;;;21.08;6.32;;;;;;;;;;4804328;29;20482;-81
2023/12/18 20:38:45;;;;;;;9.75;4.57;;;;;;;;;;4832047;29;20057;-81
2023/12/18 20:41:12;;;;;;;12.40;4.63;;;;;;;;;;4820735;29;20071;-81
2023/12/18 20:43:38;;;;;;;7.72;3.80;;;;;;;;;;4824464;29;20053;-81
2023/12/18 20:46:05;;;;;;;7.57;3.75;;;;;;;;;;4802958;29;20050;-81
2023/12/18 20:48:31;;;;;;;31.02;7.68;;;;;;;;;;4800340;29;20438;-81
2023/12/18 20:50:58;;;;;;;19.88;5.43;;;;;;;;;;4812006;29;20042;-81
2023/12/18 20:53:25;;;;;;;6.18;3.88;;;;;;;;;;4825020;29;20049;-81
2023/12/18 20:55:51;;;;;;;15.23;5.80;;;;;;;;;;4811891;29;20041;-81
2023/12/18 20:58:17;;;;;;;10.27;4.00;;;;;;;;;;4824344;29;20042;-81
2023/12/18 21:00:43;;;;;;;33.20;6.10;;;;;;;;;;4827142;29;20509;-80
2023/12/18 21:03:09;;;;;;;5.78;4.03;;;;;;;;;;4809713;29;20490;-81
2023/12/18 21:05:35;;;;;;;7.47;4.35;;;;;;;;;;4823031;29;20121;-81
2023/12/18 21:08:03;;;;;;;8.55;3.38;;;;;;;;;;4827435;29;20042;-81
2023/12/18 21:10:30;;;;;;;3.75;2.58;;;;;;;;;;4823063;29;20074;-80
2023/12/18 21:12:56;;;;;;;8.45;3.95;;;;;;;;;;4822807;29;20042;-81
2023/12/18 21:15:22;;;;;;;8.55;3.63;;;;;;;;;;4810148;29;20098;-81
2023/12/18 21:17:48;;;;;;;7.13;5.38;;;;;;;;;;4822190;29;20541;-81
2023/12/18 21:20:14;;;;;;;6.22;2.40;;;;;;;;;;4806533;29;20393;-81
2023/12/18 21:22:40;;;;;;;8.52;4.60;;;;;;;;;;4821032;29;20043;-81
2023/12/18 21:25:12;;;;;;;8.23;4.80;;;;;;;;;;4823593;29;20121;-81
2023/12/18 21:27:40;;;;;;;54.97;6.75;;;;;;;;;;4810300;29;20425;-80
2023/12/18 21:30:07;;;;;;;10.45;4.45;;;;;;;;;;4814673;29;20044;-81
2023/12/18 21:32:33;;;;;;;15.43;3.85;;;;;;;;;;4823605;29;20115;-81
2023/12/18 21:34:59;;;;;;;16.33;5.90;;;;;;;;;;4823402;29;20041;-81
2023/12/18 21:37:25;;;;;;;15.82;3.97;;;;;;;;;;4823494;29;20046;-81
2023/12/18 21:39:51;;;;;;;14.70;5.53;;;;;;;;;;4813001;29;20041;-81
2023/12/18 21:42:18;;;;;;;11.77;4.78;;;;;;;;;;4823456;29;20054;-81
2023/12/18 21:44:44;;;;;;;32.10;6.50;;;;;;;;;;4807316;29;20046;-81
2023/12/18 21:47:10;;;;;;;6.88;3.80;;;;;;;;;;4803695;29;20538;-81
2023/12/18 21:49:36;;;;;;;11.80;4.45;;;;;;;;;;4828125;29;20034;-81
2023/12/18 21:52:02;;;;;;;7.68;4.15;;;;;;;;;;4828849;29;20038;-81
2023/12/18 21:54:28;;;;;;;17.80;4.05;;;;;;;;;;4824233;29;20043;-81
2023/12/18 21:56:54;;;;;;;16.67;4.75;;;;;;;;;;4823889;29;20061;-81
2023/12/18 21:59:21;;;;;;;16.05;5.18;;;;;;;;;;4825009;29;20105;-80
2023/12/18 22:01:47;;;;;;;8.63;4.53;;;;;;;;;;4835859;29;20497;-81
2023/12/18 22:04:14;;;;;;;36.28;5.15;;;;;;;;;;4824431;29;20042;-81
2023/12/18 22:06:40;;;;;;;41.40;7.30;;;;;;;;;;4823198;29;20100;-81
2023/12/18 22:09:06;;;;;;;10.15;5.03;;;;;;;;;;4824268;29;20608;-81
2023/12/18 22:11:32;;;;;;;10.27;4.82;;;;;;;;;;4824318;29;20057;-81
2023/12/18 22:13:58;;;;;;;13.80;5.47;;;;;;;;;;4829584;29;20045;-81
2023/12/18 22:16:24;;;;;;;11.70;3.47;;;;;;;;;;4824091;29;20046;-81
2023/12/18 22:18:50;;;;;;;11.07;4.22;;;;;;;;;;4821134;29;20047;-81
2023/12/18 22:21:16;;;;;;;4.70;3.60;;;;;;;;;;4823376;29;20046;-81
2023/12/18 22:23:43;;;;;;;21.52;6.25;;;;;;;;;;4807142;29;20054;-81
2023/12/18 22:26:09;;;;;;;9.52;4.10;;;;;;;;;;4806950;29;20039;-81
2023/12/18 22:28:35;;;;;;;9.38;4.22;;;;;;;;;;4806326;29;20054;-81
2023/12/18 22:31:02;;;;;;;39.40;7.68;;;;;;;;;;4811910;29;20125;-81
2023/12/18 22:33:28;;;;;;;18.15;6.00;;;;;;;;;;4789872;29;20185;-81
2023/12/18 22:35:54;;;;;;;17.00;5.30;;;;;;;;;;4808366;29;20109;-81
2023/12/18 22:38:20;;;;;;;32.03;7.75;;;;;;;;;;4822829;29;20046;-81
2023/12/18 22:40:46;;;;;;;12.48;5.03;;;;;;;;;;4806732;29;20548;-81
2023/12/18 22:43:12;;;;;;;10.82;4.57;;;;;;;;;;4822913;29;20050;-81
2023/12/18 22:45:38;;;;;;;11.45;5.10;;;;;;;;;;4821291;29;20499;-82
2023/12/18 22:48:05;;;;;;;51.13;6.15;;;;;;;;;;4824153;29;20055;-81
2023/12/18 22:50:31;;;;;;;40.22;5.03;;;;;;;;;;4823342;29;20039;-81
2023/12/18 22:52:57;;;;;;;12.15;5.80;;;;;;;;;;4823220;29;20066;-81
2023/12/18 22:55:23;;;;;;;45.42;6.18;;;;;;;;;;4822711;29;20396;-81
2023/12/18 22:57:50;;;;;;;17.92;3.30;;;;;;;;;;4822603;29;20487;-81
2023/12/18 23:00:27;;;;;;;7.43;3.35;;;;;;;;;;4799664;29;20401;-81
2023/12/18 23:02:53;;;;;;;52.92;6.22;;;;;;;;;;4823260;29;20051;-81
2023/12/18 23:05:19;;;;;;;16.48;5.07;;;;;;;;;;4822475;29;20038;-81
2023/12/18 23:07:45;;;;;;;29.33;6.72;;;;;;;;;;4822723;29;20091;-81
2023/12/18 23:10:11;;;;;;;10.23;4.18;;;;;;;;;;4820927;29;20051;-81
2023/12/18 23:12:37;;;;;;;15.50;4.65;;;;;;;;;;4823226;29;20549;-81
2023/12/18 23:15:03;;;;;;;5.53;2.92;;;;;;;;;;4805318;29;20042;-80
2023/12/18 23:17:30;;;;;;;14.70;5.22;;;;;;;;;;4823218;29;20047;-81
2023/12/18 23:19:56;;;;;;;14.20;9.65;;;;;;;;;;4821427;29;20035;-81
2023/12/18 23:22:22;;;;;;;14.18;7.85;;;;;;;;;;4838736;29;20093;-81
2023/12/18 23:24:48;;;;;;;12.18;7.10;;;;;;;;;;4817786;29;20074;-81
2023/12/18 23:27:14;;;;;;;19.67;10.23;;;;;;;;;;4826040;29;20512;-81
2023/12/18 23:29:40;;;;;;;16.88;7.93;;;;;;;;;;4822880;29;20128;-81
2023/12/18 23:32:06;;;;;;;14.00;6.25;;;;;;;;;;4799814;29;20138;-81
2023/12/18 23:34:32;;;;;;;7.30;3.83;;;;;;;;;;4828894;29;20043;-81
2023/12/18 23:37:02;;;;;;;23.63;6.13;;;;;;;;;;4826389;29;20058;-81
2023/12/18 23:39:28;;;;;;;6.22;3.00;;;;;;;;;;4811675;29;20658;-81
2023/12/18 23:41:54;;;;;;;16.30;4.32;;;;;;;;;;4844231;29;20046;-81
2023/12/18 23:44:20;;;;;;;12.60;5.93;;;;;;;;;;4812385;29;20046;-81
2023/12/18 23:46:46;;;;;;;26.58;12.18;;;;;;;;;;4809273;29;20058;-81
2023/12/18 23:49:12;;;;;;;20.70;6.40;;;;;;;;;;4825310;29;20043;-81
2023/12/18 23:51:38;;;;;;;13.25;8.35;;;;;;;;;;4826023;29;20082;-81
2023/12/18 23:54:04;;;;;;;15.75;8.10;;;;;;;;;;4835140;29;20042;-81
2023/12/18 23:56:30;;;;;;;33.92;7.30;;;;;;;;;;4828212;29;20050;-81
2023/12/18 23:58:57;;;;;;;25.48;4.75;;;;;;;;;;4809447;29;20045;-81
